createdAt,value
2018-12-03T00:01:33.974Z,0.37
2018-12-03T00:04:10.778Z,0.30
2018-12-03T00:06:39.225Z,0.30
2018-12-03T00:09:08.765Z,0.20
2018-12-03T00:11:37.812Z,0.33
2018-12-03T00:14:06.297Z,0.20
2018-12-03T00:16:34.800Z,0.27
2018-12-03T00:19:05.811Z,0.10
2018-12-03T00:21:34.255Z,0.30
2018-12-03T00:24:05.706Z,0.27
2018-12-03T00:26:34.173Z,0.20
2018-12-03T00:29:04.569Z,0.10
2018-12-03T00:31:32.991Z,0.37
2018-12-03T00:34:04.161Z,0.20
2018-12-03T00:36:32.594Z,0.20
2018-12-03T00:39:03.577Z,0.20
2018-12-03T00:41:31.985Z,0.20
2018-12-03T00:44:00.445Z,0.20
2018-12-03T00:46:28.865Z,0.20
2018-12-03T00:48:57.370Z,0.20
2018-12-03T00:51:25.777Z,0.10
2018-12-03T00:53:54.180Z,0.20
2018-12-03T00:56:22.618Z,0.20
2018-12-03T00:58:51.029Z,0.13
2018-12-03T01:01:19.472Z,0.30
2018-12-03T01:03:47.892Z,0.30
2018-12-03T01:06:16.359Z,0.20
2018-12-03T01:08:44.764Z,0.10
2018-12-03T01:11:13.233Z,0.10
2018-12-03T01:13:41.646Z,0.10
2018-12-03T01:16:10.108Z,0.10
2018-12-03T01:18:38.537Z,0.17
2018-12-03T01:21:06.984Z,0.00
2018-12-03T01:23:35.401Z,0.40
2018-12-03T01:26:05.004Z,0.00
2018-12-03T01:28:33.429Z,0.10
2018-12-03T01:31:03.714Z,0.10
2018-12-03T01:33:32.112Z,0.00
2018-12-03T01:36:00.552Z,0.00
2018-12-03T01:38:28.953Z,0.10
2018-12-03T01:40:57.389Z,0.10
2018-12-03T01:43:25.818Z,0.10
2018-12-03T01:45:54.258Z,0.00
2018-12-03T01:48:22.668Z,0.10
2018-12-03T01:50:51.112Z,0.00
2018-12-03T01:53:19.544Z,0.10
2018-12-03T01:55:47.998Z,0.03
2018-12-03T01:58:16.412Z,0.00
2018-12-03T02:00:44.872Z,0.00
2018-12-03T02:03:13.285Z,0.00
2018-12-03T02:05:41.796Z,0.00
2018-12-03T02:08:10.224Z,0.10
2018-12-03T02:10:38.672Z,0.20
2018-12-03T02:13:07.118Z,0.10
2018-12-03T02:15:35.598Z,0.10
2018-12-03T02:18:05.429Z,0.00
2018-12-03T02:20:33.905Z,0.00
2018-12-03T02:23:05.434Z,0.00
2018-12-03T02:25:33.861Z,0.07
2018-12-03T02:28:04.649Z,0.00
2018-12-03T02:30:33.103Z,0.10
2018-12-03T02:33:03.724Z,0.10
2018-12-03T02:35:32.178Z,0.10
2018-12-03T02:38:00.981Z,0.00
2018-12-03T02:40:36.930Z,0.00
2018-12-03T02:43:05.904Z,0.00
2018-12-03T02:45:34.425Z,0.03
2018-12-03T02:48:05.700Z,0.00
2018-12-03T02:50:34.128Z,0.00
2018-12-03T02:53:07.108Z,0.00
2018-12-03T02:55:35.613Z,0.00
2018-12-03T02:58:05.834Z,0.00
2018-12-03T03:00:39.086Z,0.00
2018-12-03T03:03:07.905Z,0.00
2018-12-03T03:05:36.359Z,0.00
2018-12-03T03:08:05.299Z,0.00
2018-12-03T03:10:33.737Z,0.10
2018-12-03T03:13:05.461Z,0.10
2018-12-03T03:15:33.874Z,0.10
2018-12-03T03:18:04.410Z,0.00
2018-12-03T03:20:32.880Z,0.00
2018-12-03T03:23:03.647Z,0.00
2018-12-03T03:25:32.069Z,0.00
2018-12-03T03:28:00.517Z,0.10
2018-12-03T03:30:28.925Z,0.10
2018-12-03T03:32:57.377Z,0.10
2018-12-03T03:35:25.810Z,0.00
2018-12-03T03:37:54.258Z,0.00
2018-12-03T03:40:22.733Z,0.00
2018-12-03T03:42:51.185Z,0.00
2018-12-03T03:45:21.148Z,0.00
2018-12-03T03:47:49.633Z,0.00
2018-12-03T03:50:18.081Z,0.00
2018-12-03T03:52:46.535Z,0.00
2018-12-03T03:55:14.964Z,0.00
2018-12-03T03:57:43.437Z,0.00
2018-12-03T04:00:13.273Z,0.00
2018-12-03T04:02:41.743Z,0.03
2018-12-03T04:05:11.369Z,0.10
2018-12-03T04:07:40.214Z,0.03
2018-12-03T04:10:10.547Z,0.00
2018-12-03T04:12:39.161Z,0.10
2018-12-03T04:15:09.641Z,0.10
2018-12-03T04:17:38.069Z,0.20
2018-12-03T04:20:10.022Z,0.00
2018-12-03T04:22:38.509Z,0.10
2018-12-03T04:25:08.482Z,0.10
2018-12-03T04:27:36.956Z,0.00
2018-12-03T04:30:09.224Z,0.00
2018-12-03T04:32:37.718Z,0.10
2018-12-03T04:35:06.401Z,0.10
2018-12-03T04:37:34.841Z,0.00
2018-12-03T04:40:07.259Z,0.00
2018-12-03T04:42:35.685Z,0.10
2018-12-03T04:45:10.132Z,0.10
2018-12-03T04:47:38.602Z,0.10
2018-12-03T04:50:15.920Z,0.10
2018-12-03T04:52:44.384Z,0.03
2018-12-03T04:55:13.564Z,0.10
2018-12-03T04:57:41.996Z,0.10
2018-12-03T05:00:18.088Z,0.10
2018-12-03T05:02:48.915Z,0.10
2018-12-03T05:05:17.423Z,0.10
2018-12-03T05:07:52.186Z,0.10
2018-12-03T05:10:21.540Z,0.17
2018-12-03T05:12:51.092Z,0.10
2018-12-03T05:15:19.545Z,0.00
2018-12-03T05:17:47.975Z,0.10
2018-12-03T05:20:17.901Z,0.10
2018-12-03T05:22:46.322Z,0.03
2018-12-03T05:25:19.085Z,0.20
2018-12-03T05:27:43.241Z,0.10
2018-12-03T05:30:12.642Z,0.10
2018-12-03T05:32:41.624Z,0.20
2018-12-03T05:35:26.316Z,0.20
2018-12-03T05:37:54.747Z,0.10
2018-12-03T05:40:28.786Z,0.20
2018-12-03T05:42:57.179Z,0.10
2018-12-03T05:45:25.617Z,0.20
2018-12-03T05:47:54.005Z,0.20
2018-12-03T05:50:22.488Z,0.10
2018-12-03T05:52:50.888Z,0.10
2018-12-03T05:55:19.301Z,0.10
2018-12-03T05:57:47.747Z,0.10
2018-12-03T06:00:23.976Z,0.20
2018-12-03T06:02:52.410Z,0.20
2018-12-03T06:05:20.924Z,0.20
2018-12-03T06:07:49.345Z,0.10
2018-12-03T06:10:18.956Z,0.20
2018-12-03T06:12:47.416Z,0.17
2018-12-03T06:15:16.904Z,0.20
2018-12-03T06:17:45.816Z,0.10
2018-12-03T06:20:15.393Z,0.20
2018-12-03T06:22:43.872Z,0.20
2018-12-03T06:25:16.059Z,0.40
2018-12-03T06:27:44.708Z,0.30
2018-12-03T06:30:15.459Z,0.10
2018-12-03T06:32:43.900Z,0.20
2018-12-03T06:35:13.249Z,0.20
2018-12-03T06:37:41.772Z,0.20
2018-12-03T06:40:18.412Z,0.40
2018-12-03T06:42:47.162Z,0.20
2018-12-03T06:45:16.834Z,0.30
2018-12-03T06:48:22.500Z,0.20
2018-12-03T06:50:50.885Z,0.20
2018-12-03T06:53:19.593Z,0.37
2018-12-03T06:55:48.005Z,0.20
2018-12-03T06:58:16.836Z,0.20
2018-12-03T07:00:47.359Z,0.30
2018-12-03T07:03:15.912Z,0.30
2018-12-03T07:05:45.753Z,0.30
2018-12-03T07:08:14.144Z,0.10
2018-12-03T07:10:43.053Z,0.30
2018-12-03T07:13:16.889Z,0.23
2018-12-03T07:15:46.148Z,0.30
2018-12-03T07:18:14.632Z,0.10
2018-12-03T07:20:43.942Z,0.20
2018-12-03T07:23:12.355Z,0.20
2018-12-03T07:25:40.821Z,0.20
2018-12-03T07:28:09.242Z,0.20
2018-12-03T07:30:37.730Z,0.27
2018-12-03T07:33:06.333Z,0.30
2018-12-03T07:35:34.880Z,0.30
2018-12-03T07:38:05.498Z,0.37
2018-12-03T07:40:33.921Z,0.40
2018-12-03T07:43:04.736Z,0.30
2018-12-03T07:45:33.209Z,0.30
2018-12-03T07:48:03.688Z,0.30
2018-12-03T07:50:32.125Z,0.50
2018-12-03T07:53:00.712Z,0.30
2018-12-03T07:55:29.116Z,0.20
2018-12-03T07:58:06.601Z,0.23
2018-12-03T08:00:43.234Z,0.37
2018-12-03T08:03:11.719Z,0.40
2018-12-03T08:05:40.185Z,0.27
2018-12-03T08:08:09.228Z,0.23
2018-12-03T08:10:38.156Z,0.43
2018-12-03T08:13:08.757Z,0.30
2018-12-03T08:15:37.189Z,0.23
2018-12-03T08:18:08.455Z,0.37
2018-12-03T08:20:43.220Z,0.40
2018-12-03T08:23:24.473Z,0.30
2018-12-03T08:25:52.922Z,0.20
2018-12-03T08:28:21.356Z,0.30
2018-12-03T08:30:49.797Z,0.20
2018-12-03T08:33:18.225Z,0.20
2018-12-03T08:35:46.664Z,0.30
2018-12-03T08:38:15.077Z,0.23
2018-12-03T08:40:46.721Z,0.20
2018-12-03T08:43:15.160Z,0.30
2018-12-03T08:45:43.884Z,0.30
2018-12-03T08:48:12.300Z,0.10
2018-12-03T08:50:43.253Z,0.30
2018-12-03T08:53:11.865Z,0.40
2018-12-03T08:55:41.052Z,0.30
2018-12-03T08:58:15.775Z,0.40
2018-12-03T09:00:45.936Z,0.30
2018-12-03T09:03:19.193Z,0.40
2018-12-03T09:05:47.776Z,0.20
2018-12-03T09:08:16.214Z,0.60
2018-12-03T09:10:45.454Z,0.30
2018-12-03T09:13:17.989Z,0.40
2018-12-03T09:15:56.979Z,0.50
2018-12-03T09:18:30.037Z,0.40
2018-12-03T09:20:59.314Z,0.40
2018-12-03T09:23:27.868Z,0.60
2018-12-03T09:25:56.368Z,0.30
2018-12-03T09:28:25.141Z,0.47
2018-12-03T09:30:53.549Z,0.40
2018-12-03T09:33:22.017Z,0.30
2018-12-03T09:35:50.468Z,0.33
2018-12-03T09:38:18.962Z,0.37
2018-12-03T09:40:47.400Z,0.43
2018-12-03T09:43:15.906Z,0.23
2018-12-03T09:45:44.380Z,0.50
2018-12-03T09:48:12.837Z,0.40
2018-12-03T09:50:41.264Z,0.40
2018-12-03T09:53:09.756Z,0.30
2018-12-03T09:55:38.191Z,0.50
2018-12-03T09:58:12.217Z,0.47
2018-12-03T10:00:40.971Z,0.50
2018-12-03T10:03:12.525Z,0.40
2018-12-03T10:05:46.510Z,0.40
2018-12-03T10:08:14.984Z,0.30
2018-12-03T10:10:51.561Z,0.50
2018-12-03T10:13:19.992Z,0.43
2018-12-03T10:15:48.418Z,0.50
2018-12-03T10:18:16.858Z,0.77
2018-12-03T10:20:51.103Z,0.30
2018-12-03T10:23:19.561Z,0.20
2018-12-03T10:25:49.452Z,0.30
2018-12-03T10:28:17.921Z,0.30
2018-12-03T10:30:46.870Z,0.47
2018-12-03T10:33:18.605Z,0.30
2018-12-03T10:35:47.332Z,0.40
2018-12-03T10:38:20.971Z,0.27
2018-12-03T10:40:53.404Z,0.67
2018-12-03T10:43:22.046Z,0.47
2018-12-03T10:45:50.473Z,0.40
2018-12-03T10:48:18.893Z,0.20
2018-12-03T10:50:47.369Z,0.50
2018-12-03T10:53:15.840Z,0.20
2018-12-03T10:55:44.864Z,0.20
2018-12-03T10:58:15.728Z,0.40
2018-12-03T11:00:50.409Z,0.20
2018-12-03T11:03:24.201Z,0.40
2018-12-03T11:05:58.708Z,0.30
2018-12-03T11:08:27.301Z,0.37
2018-12-03T11:10:56.217Z,0.37
2018-12-03T11:13:24.784Z,0.40
2018-12-03T11:15:53.257Z,0.40
2018-12-03T11:18:22.229Z,0.70
2018-12-03T11:20:50.656Z,0.50
2018-12-03T11:23:21.665Z,0.30
2018-12-03T11:25:50.157Z,0.50
2018-12-03T11:28:19.473Z,0.47
2018-12-03T11:30:53.036Z,0.13
2018-12-03T11:33:24.992Z,0.70
2018-12-03T11:35:56.435Z,0.30
2018-12-03T11:38:40.028Z,0.33
2018-12-03T11:41:08.458Z,0.30
2018-12-03T11:43:36.931Z,0.30
2018-12-03T11:46:05.717Z,0.20
2018-12-03T11:48:34.413Z,0.40
2018-12-03T11:51:06.805Z,0.40
2018-12-03T11:53:35.294Z,0.20
2018-12-03T11:56:05.220Z,0.40
2018-12-03T11:58:33.664Z,0.40
2018-12-03T12:01:03.824Z,0.40
2018-12-03T12:03:32.317Z,0.40
2018-12-03T12:06:00.789Z,0.40
2018-12-03T12:08:29.218Z,0.20
2018-12-03T12:10:57.647Z,0.20
2018-12-03T12:13:26.107Z,0.23
2018-12-03T12:15:54.563Z,0.50
2018-12-03T12:18:23.359Z,0.50
2018-12-03T12:20:51.814Z,0.40
2018-12-03T12:23:20.381Z,0.40
2018-12-03T12:25:48.801Z,0.20
2018-12-03T12:28:17.218Z,0.37
2018-12-03T12:30:46.008Z,0.40
2018-12-03T12:33:14.441Z,0.30
2018-12-03T12:35:42.857Z,0.97
2018-12-03T12:38:11.341Z,0.43
2018-12-03T12:40:39.777Z,0.40
2018-12-03T12:43:08.853Z,0.20
2018-12-03T12:45:42.101Z,0.40
2018-12-03T12:48:10.577Z,0.30
2018-12-03T12:50:39.024Z,0.40
2018-12-03T12:53:07.688Z,0.33
2018-12-03T12:55:36.138Z,0.57
2018-12-03T12:58:05.744Z,0.77
2018-12-03T13:00:34.240Z,0.40
2018-12-03T13:03:06.617Z,0.30
2018-12-03T13:05:35.167Z,0.40
2018-12-03T13:08:06.480Z,0.60
2018-12-03T13:10:35.389Z,0.50
2018-12-03T13:13:05.261Z,0.50
2018-12-03T13:15:33.737Z,0.80
2018-12-03T13:18:05.833Z,0.40
2018-12-03T13:20:34.285Z,0.20
2018-12-03T13:23:05.446Z,0.37
2018-12-03T13:25:33.936Z,0.53
2018-12-03T13:28:04.467Z,0.47
2018-12-03T13:30:32.988Z,0.33
2018-12-03T13:33:04.452Z,0.30
2018-12-03T13:35:32.869Z,0.30
2018-12-03T13:38:03.869Z,0.30
2018-12-03T13:40:32.294Z,0.30
2018-12-03T13:43:03.641Z,0.40
2018-12-03T13:45:32.061Z,0.30
2018-12-03T13:48:00.780Z,0.30
2018-12-03T13:50:29.204Z,0.67
2018-12-03T13:52:57.660Z,0.63
2018-12-03T13:55:26.084Z,0.50
2018-12-03T13:57:54.536Z,0.40
2018-12-03T14:00:25.353Z,0.40
2018-12-03T14:03:25.441Z,0.40
2018-12-03T14:06:03.397Z,0.40
2018-12-03T14:09:45.934Z,0.40
2018-12-03T14:12:29.677Z,0.60
2018-12-03T14:15:24.265Z,0.40
2018-12-03T14:18:04.149Z,0.50
2018-12-03T14:20:36.553Z,0.50
2018-12-03T14:23:08.065Z,0.30
2018-12-03T14:25:36.517Z,0.23
2018-12-03T14:28:05.188Z,0.40
2018-12-03T14:30:33.610Z,0.40
2018-12-03T14:33:04.610Z,0.60
2018-12-03T14:35:33.008Z,0.50
2018-12-03T14:38:03.661Z,0.40
2018-12-03T14:40:32.110Z,0.40
2018-12-03T14:43:00.517Z,0.40
2018-12-03T14:45:28.997Z,0.40
2018-12-03T14:47:57.409Z,0.70
2018-12-03T14:50:25.846Z,0.50
2018-12-03T14:52:54.256Z,0.53
2018-12-03T14:55:22.761Z,0.70
2018-12-03T14:57:51.180Z,0.70
2018-12-03T15:00:19.640Z,0.47
2018-12-03T15:02:48.056Z,0.40
2018-12-03T15:05:16.510Z,0.80
2018-12-03T15:07:44.984Z,0.60
2018-12-03T15:10:13.476Z,0.50
2018-12-03T15:12:41.913Z,0.50
2018-12-03T15:15:11.477Z,0.57
2018-12-03T15:17:42.740Z,0.70
2018-12-03T15:20:11.226Z,0.50
2018-12-03T15:22:39.689Z,0.70
2018-12-03T15:25:10.374Z,0.43
2018-12-03T15:27:38.805Z,0.40
2018-12-03T15:30:09.013Z,0.50
2018-12-03T15:32:37.560Z,0.70
2018-12-03T15:35:08.271Z,0.60
2018-12-03T15:37:39.520Z,0.40
2018-12-03T15:40:11.288Z,0.53
2018-12-03T15:42:39.812Z,0.60
2018-12-03T15:45:09.599Z,0.40
2018-12-03T15:47:38.060Z,0.40
2018-12-03T15:50:07.356Z,0.40
2018-12-03T15:52:35.833Z,0.50
2018-12-03T15:55:07.301Z,0.40
2018-12-03T15:57:35.774Z,0.60
2018-12-03T16:00:08.417Z,0.60
2018-12-03T16:02:36.909Z,0.30
2018-12-03T16:05:08.392Z,0.47
2018-12-03T16:07:36.893Z,0.50
2018-12-03T16:10:09.089Z,0.60
2018-12-03T16:12:37.598Z,0.30
2018-12-03T16:15:07.330Z,0.40
2018-12-03T16:17:35.774Z,0.50
2018-12-03T16:20:06.608Z,0.40
2018-12-03T16:22:35.034Z,0.50
2018-12-03T16:25:06.211Z,0.60
2018-12-03T16:27:34.656Z,0.40
2018-12-03T16:30:09.051Z,0.40
2018-12-03T16:32:37.492Z,0.50
2018-12-03T16:35:06.001Z,0.67
2018-12-03T16:37:34.470Z,0.70
2018-12-03T16:40:07.588Z,0.60
2018-12-03T16:42:36.154Z,0.60
2018-12-03T16:45:06.421Z,0.43
2018-12-03T16:48:08.634Z,0.50
2018-12-03T16:50:37.224Z,0.43
2018-12-03T16:53:05.645Z,0.40
2018-12-03T16:55:34.093Z,0.60
2018-12-03T16:58:04.685Z,0.70
2018-12-03T17:00:33.117Z,0.70
2018-12-03T17:03:03.710Z,0.50
2018-12-03T17:05:32.127Z,0.50
2018-12-03T17:08:00.654Z,0.63
2018-12-03T17:10:29.067Z,0.60
2018-12-03T17:12:58.539Z,0.60
2018-12-03T17:15:26.949Z,0.50
2018-12-03T17:17:55.460Z,0.50
2018-12-03T17:20:35.290Z,0.67
2018-12-03T17:23:15.415Z,0.60
2018-12-03T17:25:43.809Z,0.60
2018-12-03T17:28:13.037Z,0.50
2018-12-03T17:30:42.292Z,0.50
2018-12-03T17:33:10.705Z,0.60
2018-12-03T17:35:39.164Z,0.47
2018-12-03T17:38:07.560Z,0.80
2018-12-03T17:40:36.030Z,0.60
2018-12-03T17:43:05.085Z,0.50
2018-12-03T17:45:33.665Z,0.70
2018-12-03T17:48:04.673Z,0.60
2018-12-03T17:50:33.144Z,0.50
2018-12-03T17:53:04.945Z,0.50
2018-12-03T17:55:33.397Z,0.70
2018-12-03T17:58:03.670Z,0.50
2018-12-03T18:00:32.069Z,1.27
2018-12-03T18:03:00.529Z,0.90
2018-12-03T18:05:28.929Z,0.70
2018-12-03T18:07:57.428Z,0.53
2018-12-03T18:10:25.853Z,0.57
2018-12-03T18:12:54.302Z,0.70
2018-12-03T18:15:22.719Z,0.73
2018-12-03T18:17:51.186Z,0.73
2018-12-03T18:20:19.587Z,0.50
2018-12-03T18:22:48.035Z,0.60
2018-12-03T18:25:16.453Z,1.10
2018-12-03T18:27:44.927Z,0.80
2018-12-03T18:30:13.365Z,0.90
2018-12-03T18:32:41.816Z,0.73
2018-12-03T18:35:10.257Z,0.70
2018-12-03T18:37:38.709Z,0.70
2018-12-03T18:40:09.325Z,0.70
2018-12-03T18:42:37.774Z,0.70
2018-12-03T18:45:07.412Z,0.40
2018-12-03T18:47:35.861Z,0.40
2018-12-03T18:50:12.756Z,0.43
2018-12-03T18:52:41.208Z,0.43
2018-12-03T18:55:09.616Z,0.60
2018-12-03T18:57:38.065Z,0.53
2018-12-03T19:00:11.949Z,0.43
2018-12-03T19:02:40.425Z,0.50
2018-12-03T19:05:08.836Z,0.40
2018-12-03T19:07:37.256Z,0.80
2018-12-03T19:10:07.525Z,0.50
2018-12-03T19:12:35.952Z,0.90
2018-12-03T19:15:05.689Z,0.50
2018-12-03T19:17:34.124Z,0.70
2018-12-03T19:20:04.637Z,0.60
2018-12-03T19:22:33.033Z,0.63
2018-12-03T19:25:03.745Z,0.50
2018-12-03T19:27:32.208Z,0.50
2018-12-03T19:30:00.652Z,0.60
2018-12-03T19:32:29.109Z,0.70
2018-12-03T19:34:57.694Z,0.60
2018-12-03T19:37:26.094Z,0.60
2018-12-03T19:39:54.602Z,0.60
2018-12-03T19:42:23.957Z,0.80
2018-12-03T19:44:52.397Z,1.03
2018-12-03T19:47:20.848Z,0.60
2018-12-03T19:49:49.432Z,0.50
2018-12-03T19:52:17.916Z,0.50
2018-12-03T19:54:47.290Z,0.50
2018-12-03T19:57:17.954Z,0.47
2018-12-03T19:59:51.369Z,0.53
2018-12-03T20:02:19.815Z,0.40
2018-12-03T20:04:51.413Z,0.30
2018-12-03T20:07:20.008Z,0.40
2018-12-03T20:09:50.657Z,0.30
2018-12-03T20:12:19.117Z,0.50
2018-12-03T20:14:47.568Z,0.30
2018-12-03T20:17:23.040Z,0.30
2018-12-03T20:19:51.498Z,0.40
2018-12-03T20:22:19.924Z,0.20
2018-12-03T20:24:49.058Z,0.30
2018-12-03T20:28:25.289Z,0.20
2018-12-03T20:31:09.000Z,0.20
2018-12-03T20:33:48.728Z,0.30
2018-12-03T20:38:31.745Z,0.27
2018-12-03T20:41:20.442Z,0.47
2018-12-03T20:43:50.949Z,0.30
2018-12-03T20:46:36.377Z,0.40
2018-12-03T20:49:20.690Z,0.30
2018-12-03T20:51:50.113Z,0.47
2018-12-03T20:54:18.506Z,0.40
2018-12-03T20:56:46.946Z,0.53
2018-12-03T20:59:15.336Z,0.50
2018-12-03T21:01:46.022Z,0.43
2018-12-03T21:04:16.437Z,0.40
2018-12-03T21:06:44.885Z,0.40
2018-12-03T21:09:13.336Z,0.40
2018-12-03T21:11:41.893Z,0.70
2018-12-03T21:14:10.311Z,0.40
2018-12-03T21:16:38.737Z,0.40
2018-12-03T21:19:07.199Z,0.30
2018-12-03T21:21:35.604Z,0.30
2018-12-03T21:24:05.247Z,0.30
2018-12-03T21:26:33.667Z,0.33
2018-12-03T21:29:06.102Z,0.47
2018-12-03T21:31:34.504Z,0.33
2018-12-03T21:34:05.376Z,0.30
2018-12-03T21:36:33.773Z,0.30
2018-12-03T21:39:05.036Z,0.37
2018-12-03T21:41:33.488Z,0.30
2018-12-03T21:44:04.369Z,0.37
2018-12-03T21:46:32.796Z,0.50
2018-12-03T21:49:05.126Z,0.33
2018-12-03T21:51:33.525Z,0.23
2018-12-03T21:54:04.434Z,0.40
2018-12-03T21:56:32.860Z,0.30
2018-12-03T21:59:04.158Z,0.70
2018-12-03T22:01:32.700Z,0.20
2018-12-03T22:04:05.130Z,0.20
2018-12-03T22:06:33.541Z,0.37
2018-12-03T22:09:05.634Z,0.23
2018-12-03T22:11:34.044Z,0.30
2018-12-03T22:14:06.171Z,0.20
2018-12-03T22:16:34.582Z,0.30
2018-12-03T22:19:06.197Z,0.33
2018-12-03T22:21:34.604Z,0.33
2018-12-03T22:24:06.112Z,0.30
2018-12-03T22:26:34.501Z,0.23
2018-12-03T22:29:06.103Z,0.30
2018-12-03T22:31:34.521Z,0.33
2018-12-03T22:34:05.268Z,0.30
2018-12-03T22:36:34.418Z,0.30
2018-12-03T22:39:06.205Z,0.30
2018-12-03T22:41:34.854Z,0.30
2018-12-03T22:44:05.026Z,0.40
2018-12-03T22:46:33.429Z,0.20
2018-12-03T22:49:05.208Z,0.30
2018-12-03T22:51:33.614Z,0.47
2018-12-03T22:54:05.277Z,0.20
2018-12-03T22:56:33.665Z,0.20
2018-12-03T22:59:05.356Z,0.30
2018-12-03T23:01:33.925Z,0.20
2018-12-03T23:04:09.820Z,0.23
2018-12-03T23:06:38.260Z,0.30
2018-12-03T23:09:08.548Z,0.20
2018-12-03T23:11:37.227Z,0.20
2018-12-03T23:14:06.592Z,0.20
2018-12-03T23:16:35.244Z,0.30
2018-12-03T23:19:06.149Z,0.20
2018-12-03T23:21:35.037Z,0.40
2018-12-03T23:24:05.732Z,0.17
2018-12-03T23:26:34.189Z,0.20
2018-12-03T23:29:05.140Z,0.20
2018-12-03T23:31:33.861Z,0.10
2018-12-03T23:34:05.964Z,0.20
2018-12-03T23:36:34.526Z,0.10
2018-12-03T23:39:09.827Z,0.83
2018-12-03T23:41:38.380Z,0.30
2018-12-03T23:44:06.889Z,0.30
2018-12-03T23:46:35.373Z,0.20
2018-12-03T23:49:05.813Z,0.30
2018-12-03T23:51:36.342Z,0.20
2018-12-03T23:54:05.215Z,0.30
2018-12-03T23:56:33.693Z,0.40
2018-12-03T23:59:04.590Z,0.20
